Time;durP1;ratioP1;P1;durP2;ratioP2;P2;SDS_P1;SDS_P2;PMS_P1;PMS_P2;Temp;Humidity;BMP_temperature;BMP_pressure;BME280_temperature;BME280_humidity;BME280_pressure;Samples;Min_cycle;Max_cycle;Signal;HPM_P1;HPM_P2
2023/09/21 00:01:10;;;;;;;;;;;;;;;;;;4983405;28;19925;-64
2023/09/21 00:03:36;;;;;;;;;;;;;;;;;;5000524;28;19928;-65
2023/09/21 00:06:01;;;;;;;;;;;;;;;;;;4984693;28;19917;-65
2023/09/21 00:08:29;;;;;;;;;;;;;;;;;;5001488;28;20041;-65
2023/09/21 00:11:16;;;;;;;;;;;;;;;;;;5005707;28;19921;-64
2023/09/21 00:13:46;;;;;;;;;;;;;;;;;;4987706;28;19921;-65
2023/09/21 00:16:11;;;;;;;;;;;;;;;;;;4998779;28;20003;-65
2023/09/21 00:18:39;;;;;;;;;;;;;;;;;;5006578;28;19947;-64
2023/09/21 00:21:09;;;;;;;;;;;;;;;;;;4999504;28;19980;-65
2023/09/21 00:23:37;;;;;;;;;;;;;;;;;;4987002;28;19927;-65
2023/09/21 00:26:07;;;;;;;;;;;;;;;;;;5005527;28;19943;-64
2023/09/21 00:28:32;;;;;;;;;;;;;;;;;;5000405;28;19928;-63
2023/09/21 00:31:02;;;;;;;;;;;;;;;;;;4989843;28;20383;-65
2023/09/21 00:33:27;;;;;;;;;;;;;;;;;;4985422;28;19917;-65
2023/09/21 00:35:52;;;;;;;;;;;;;;;;;;4983203;28;19928;-64
2023/09/21 00:38:22;;;;;;;;;;;;;;;;;;4983205;28;20007;-65
2023/09/21 00:40:53;;;;;;;;;;;;;;;;;;5000547;28;20378;-65
2023/09/21 00:43:20;;;;;;;;;;;;;;;;;;4985661;28;20632;-64
2023/09/21 00:45:48;;;;;;;;;;;;;;;;;;4996617;28;20023;-65
2023/09/21 00:48:13;;;;;;;;;;;;;;;;;;4996101;28;20011;-64
2023/09/21 00:50:41;;;;;;;;;;;;;;;;;;5000386;28;19925;-65
2023/09/21 00:53:13;;;;;;;;;;;;;;;;;;4994676;28;19928;-66
2023/09/21 00:55:38;;;;;;;;;;;;;;;;;;4984834;28;19921;-66
2023/09/21 00:58:09;;;;;;;;;;;;;;;;;;4985581;28;20040;-65
2023/09/21 01:00:37;;;;;;;;;;;;;;;;;;4999186;28;20029;-65
2023/09/21 01:03:12;;;;;;;;;;;;;;;;;;4983689;28;19921;-64
2023/09/21 01:05:39;;;;;;;;;;;;;;;;;;4975094;28;19956;-64
2023/09/21 01:08:05;;;;;;;;;;;;;;;;;;5001434;28;19956;-64
2023/09/21 01:10:33;;;;;;;;;;;;;;;;;;4998864;28;19957;-64
2023/09/21 01:13:03;;;;;;;;;;;;;;;;;;4999981;28;20000;-65
2023/09/21 01:15:32;;;;;;;;;;;;;;;;;;4997481;28;20032;-64
2023/09/21 01:17:57;;;;;;;;;;;;;;;;;;4997191;28;19921;-64
2023/09/21 01:20:30;;;;;;;;;;;;;;;;;;4982723;28;19921;-64
2023/09/21 01:22:55;;;;;;;;;;;;;;;;;;5005809;28;20004;-65
2023/09/21 01:25:20;;;;;;;;;;;;;;;;;;4988121;28;19929;-63
2023/09/21 01:27:51;;;;;;;;;;;;;;;;;;4987162;28;19998;-64
2023/09/21 01:30:19;;;;;;;;;;;;;;;;;;4989944;28;20009;-64
2023/09/21 01:32:48;;;;;;;;;;;;;;;;;;4984771;28;20869;-65
2023/09/21 01:35:16;;;;;;;;;;;;;;;;;;5001339;28;21810;-63
2023/09/21 01:37:46;;;;;;;;;;;;;;;;;;4987054;28;19925;-64
2023/09/21 01:40:18;;;;;;;;;;;;;;;;;;4999612;28;19925;-64
2023/09/21 01:42:44;;;;;;;;;;;;;;;;;;4999568;28;20884;-64
2023/09/21 01:45:11;;;;;;;;;;;;;;;;;;4987852;28;19921;-65
2023/09/21 01:47:36;;;;;;;;;;;;;;;;;;4995093;28;20007;-64
2023/09/21 01:50:06;;;;;;;;;;;;;;;;;;4999136;28;20016;-64
2023/09/21 01:52:34;;;;;;;;;;;;;;;;;;5000108;28;19968;-64
2023/09/21 01:55:05;;;;;;;;;;;;;;;;;;4987334;28;19996;-65
2023/09/21 01:57:32;;;;;;;;;;;;;;;;;;5000434;28;19923;-64
2023/09/21 01:59:57;;;;;;;;;;;;;;;;;;4985815;28;19921;-65
2023/09/21 02:02:26;;;;;;;;;;;;;;;;;;4998128;28;19964;-64
2023/09/21 02:04:56;;;;;;;;;;;;;;;;;;4972027;28;20056;-65
2023/09/21 02:07:22;;;;;;;;;;;;;;;;;;5014753;28;19927;-64
2023/09/21 02:09:47;;;;;;;;;;;;;;;;;;4987923;28;19921;-65
2023/09/21 02:12:12;;;;;;;;;;;;;;;;;;5003266;28;20478;-64
2023/09/21 02:14:40;;;;;;;;;;;;;;;;;;4988334;28;19956;-65
2023/09/21 02:17:08;;;;;;;;;;;;;;;;;;4983399;28;19925;-65
2023/09/21 02:19:37;;;;;;;;;;;;;;;;;;4988113;28;19956;-64
2023/09/21 02:22:05;;;;;;;;;;;;;;;;;;5003418;28;19921;-66
2023/09/21 02:24:30;;;;;;;;;;;;;;;;;;4974706;28;19922;-66
2023/09/21 02:26:58;;;;;;;;;;;;;;;;;;5001918;28;20073;-65
2023/09/21 02:29:24;;;;;;;;;;;;;;;;;;4986845;28;19922;-65
2023/09/21 02:31:52;;;;;;;;;;;;;;;;;;5000703;28;20026;-65
2023/09/21 02:34:17;;;;;;;;;;;;;;;;;;4985925;28;21770;-66
2023/09/21 02:36:45;;;;;;;;;;;;;;;;;;5000102;28;19928;-65
2023/09/21 02:39:13;;;;;;;;;;;;;;;;;;5004282;28;19928;-66
2023/09/21 02:41:41;;;;;;;;;;;;;;;;;;4988376;28;19932;-65
2023/09/21 02:44:14;;;;;;;;;;;;;;;;;;4999848;28;20351;-65
2023/09/21 02:46:39;;;;;;;;;;;;;;;;;;5000914;28;20487;-65
2023/09/21 02:49:06;;;;;;;;;;;;;;;;;;4984041;28;19921;-66
2023/09/21 02:51:34;;;;;;;;;;;;;;;;;;5006976;28;19928;-64
2023/09/21 02:54:03;;;;;;;;;;;;;;;;;;4989961;28;19921;-65
2023/09/21 02:56:29;;;;;;;;;;;;;;;;;;4991449;28;19917;-65
2023/09/21 02:58:57;;;;;;;;;;;;;;;;;;4992546;28;20264;-65
2023/09/21 03:01:22;;;;;;;;;;;;;;;;;;4973638;28;19921;-64
2023/09/21 03:03:48;;;;;;;;;;;;;;;;;;4987554;28;20395;-65
2023/09/21 03:06:18;;;;;;;;;;;;;;;;;;5017773;28;20711;-64
2023/09/21 03:08:45;;;;;;;;;;;;;;;;;;4989801;28;19932;-64
2023/09/21 03:11:13;;;;;;;;;;;;;;;;;;4985760;28;19928;-64
2023/09/21 03:13:45;;;;;;;;;;;;;;;;;;4986918;28;19918;-64
2023/09/21 03:16:16;;;;;;;;;;;;;;;;;;4998986;28;19955;-64
2023/09/21 03:18:47;;;;;;;;;;;;;;;;;;4991790;28;20025;-63
2023/09/21 03:21:15;;;;;;;;;;;;;;;;;;4988665;28;19921;-64
2023/09/21 03:23:44;;;;;;;;;;;;;;;;;;5005589;28;21527;-64
2023/09/21 03:26:18;;;;;;;;;;;;;;;;;;4984475;28;19921;-63
2023/09/21 03:28:45;;;;;;;;;;;;;;;;;;5005990;28;19925;-65
2023/09/21 03:31:12;;;;;;;;;;;;;;;;;;5001979;28;19934;-64
2023/09/21 03:33:38;;;;;;;;;;;;;;;;;;5002588;28;19921;-64
2023/09/21 03:36:03;;;;;;;;;;;;;;;;;;5000295;28;19925;-64
2023/09/21 03:38:31;;;;;;;;;;;;;;;;;;4985590;28;19921;-64
2023/09/21 03:40:56;;;;;;;;;;;;;;;;;;5000748;28;20028;-65
2023/09/21 03:43:23;;;;;;;;;;;;;;;;;;5000990;28;19921;-65
2023/09/21 03:45:51;;;;;;;;;;;;;;;;;;5002824;28;19976;-65
2023/09/21 03:48:19;;;;;;;;;;;;;;;;;;5003237;28;19929;-64
2023/09/21 03:50:55;;;;;;;;;;;;;;;;;;4975062;28;20007;-64
2023/09/21 03:53:23;;;;;;;;;;;;;;;;;;4988792;28;21963;-64
2023/09/21 03:55:51;;;;;;;;;;;;;;;;;;4973713;28;19962;-64
2023/09/21 03:58:19;;;;;;;;;;;;;;;;;;4991229;28;19917;-65
2023/09/21 04:00:47;;;;;;;;;;;;;;;;;;4984734;28;19932;-64
2023/09/21 04:03:16;;;;;;;;;;;;;;;;;;4992717;28;20015;-64
2023/09/21 04:05:44;;;;;;;;;;;;;;;;;;4989727;28;20016;-65
2023/09/21 04:08:10;;;;;;;;;;;;;;;;;;4991593;28;19921;-64
2023/09/21 04:10:37;;;;;;;;;;;;;;;;;;4990470;28;19932;-64
2023/09/21 04:13:03;;;;;;;;;;;;;;;;;;5002820;28;19974;-64
2023/09/21 04:15:30;;;;;;;;;;;;;;;;;;5007040;28;20003;-64
2023/09/21 04:17:57;;;;;;;;;;;;;;;;;;4987276;28;19921;-65
2023/09/21 04:20:25;;;;;;;;;;;;;;;;;;5005980;28;19971;-64
2023/09/21 04:22:55;;;;;;;;;;;;;;;;;;5002678;28;20560;-66
2023/09/21 04:25:23;;;;;;;;;;;;;;;;;;4986363;28;20335;-65
2023/09/21 04:27:48;;;;;;;;;;;;;;;;;;4990661;28;21867;-65
2023/09/21 04:30:16;;;;;;;;;;;;;;;;;;4984043;28;19928;-64
2023/09/21 04:32:45;;;;;;;;;;;;;;;;;;5001639;28;19917;-65
2023/09/21 04:35:10;;;;;;;;;;;;;;;;;;4999070;28;20825;-65
2023/09/21 04:37:38;;;;;;;;;;;;;;;;;;4988709;28;19928;-65
2023/09/21 04:40:09;;;;;;;;;;;;;;;;;;4988231;28;19966;-64
2023/09/21 04:42:35;;;;;;;;;;;;;;;;;;4991560;28;19921;-64
2023/09/21 04:45:09;;;;;;;;;;;;;;;;;;4972371;28;19965;-65
2023/09/21 04:47:34;;;;;;;;;;;;;;;;;;4985721;28;19933;-65
2023/09/21 04:49:59;;;;;;;;;;;;;;;;;;4990295;28;20295;-64
2023/09/21 04:52:25;;;;;;;;;;;;;;;;;;4987878;28;20015;-64
2023/09/21 04:54:53;;;;;;;;;;;;;;;;;;5005180;28;19929;-65
2023/09/21 04:57:18;;;;;;;;;;;;;;;;;;4988567;28;19917;-64
2023/09/21 04:59:46;;;;;;;;;;;;;;;;;;4984598;28;19956;-65
2023/09/21 05:02:12;;;;;;;;;;;;;;;;;;4999159;28;19917;-66
2023/09/21 05:04:39;;;;;;;;;;;;;;;;;;4990399;28;19974;-65
2023/09/21 05:07:08;;;;;;;;;;;;;;;;;;5005927;28;19924;-66
2023/09/21 05:09:34;;;;;;;;;;;;;;;;;;4991001;28;19931;-65
2023/09/21 05:12:03;;;;;;;;;;;;;;;;;;4990703;28;20044;-65
2023/09/21 05:14:29;;;;;;;;;;;;;;;;;;4990642;28;20020;-65
2023/09/21 05:16:57;;;;;;;;;;;;;;;;;;4997775;28;19918;-65
2023/09/21 05:19:22;;;;;;;;;;;;;;;;;;5000443;28;20397;-64
2023/09/21 05:21:47;;;;;;;;;;;;;;;;;;4990189;28;20048;-65
2023/09/21 05:24:15;;;;;;;;;;;;;;;;;;4982108;28;19921;-65
2023/09/21 05:26:44;;;;;;;;;;;;;;;;;;4989008;28;19960;-65
2023/09/21 05:29:09;;;;;;;;;;;;;;;;;;4990171;28;20611;-65
2023/09/21 05:31:35;;;;;;;;;;;;;;;;;;4987011;28;20011;-65
2023/09/21 05:34:02;;;;;;;;;;;;;;;;;;4985403;28;19925;-65
2023/09/21 05:36:32;;;;;;;;;;;;;;;;;;5004336;28;19921;-65
2023/09/21 05:39:00;;;;;;;;;;;;;;;;;;4975373;28;20864;-65
2023/09/21 05:41:27;;;;;;;;;;;;;;;;;;5000179;28;19925;-65
2023/09/21 05:43:55;;;;;;;;;;;;;;;;;;5002408;28;19921;-65
2023/09/21 05:46:21;;;;;;;;;;;;;;;;;;4999258;28;20040;-65
2023/09/21 05:48:49;;;;;;;;;;;;;;;;;;4993420;28;19921;-65
2023/09/21 05:51:15;;;;;;;;;;;;;;;;;;4991574;28;20397;-66
2023/09/21 05:53:43;;;;;;;;;;;;;;;;;;5003188;28;19944;-65
2023/09/21 05:56:09;;;;;;;;;;;;;;;;;;4976307;28;19960;-64
2023/09/21 05:58:36;;;;;;;;;;;;;;;;;;4991741;28;20001;-64
2023/09/21 06:01:01;;;;;;;;;;;;;;;;;;4985008;28;19936;-64
2023/09/21 06:03:27;;;;;;;;;;;;;;;;;;4989930;28;19921;-64
2023/09/21 06:05:55;;;;;;;;;;;;;;;;;;5004755;28;20893;-65
2023/09/21 06:08:24;;;;;;;;;;;;;;;;;;5005785;28;20303;-64
2023/09/21 06:10:53;;;;;;;;;;;;;;;;;;5018103;28;20012;-65
2023/09/21 06:13:19;;;;;;;;;;;;;;;;;;5003949;28;20573;-65
2023/09/21 06:15:49;;;;;;;;;;;;;;;;;;5000596;28;21727;-65
2023/09/21 06:18:17;;;;;;;;;;;;;;;;;;5002580;28;19921;-65
2023/09/21 06:20:43;;;;;;;;;;;;;;;;;;5009340;28;19921;-66
2023/09/21 06:23:10;;;;;;;;;;;;;;;;;;4991898;28;19957;-65
2023/09/21 06:25:38;;;;;;;;;;;;;;;;;;5005439;28;20003;-65
2023/09/21 06:28:03;;;;;;;;;;;;;;;;;;5002152;28;19917;-65
2023/09/21 06:30:32;;;;;;;;;;;;;;;;;;4992098;28;19917;-67
2023/09/21 06:32:57;;;;;;;;;;;;;;;;;;4993883;28;19925;-65
2023/09/21 06:35:26;;;;;;;;;;;;;;;;;;4992837;28;19940;-67
2023/09/21 06:37:54;;;;;;;;;;;;;;;;;;5009910;28;20016;-66
2023/09/21 06:40:24;;;;;;;;;;;;;;;;;;5004060;28;19932;-68
2023/09/21 06:42:52;;;;;;;;;;;;;;;;;;4990778;28;19940;-66
2023/09/21 06:45:19;;;;;;;;;;;;;;;;;;4975040;28;19918;-67
2023/09/21 06:47:47;;;;;;;;;;;;;;;;;;4990863;28;20400;-66
2023/09/21 06:50:15;;;;;;;;;;;;;;;;;;4993894;28;21198;-66
2023/09/21 06:52:40;;;;;;;;;;;;;;;;;;4987281;28;19917;-66
2023/09/21 06:55:09;;;;;;;;;;;;;;;;;;5004790;28;19943;-66
2023/09/21 06:57:37;;;;;;;;;;;;;;;;;;5008999;28;19917;-65
2023/09/21 07:00:08;;;;;;;;;;;;;;;;;;4992361;28;19921;-66
2023/09/21 07:02:36;;;;;;;;;;;;;;;;;;4992392;28;19956;-66
2023/09/21 07:05:01;;;;;;;;;;;;;;;;;;4991841;28;20004;-65
2023/09/21 07:07:26;;;;;;;;;;;;;;;;;;4974540;28;19949;-65
2023/09/21 07:09:57;;;;;;;;;;;;;;;;;;4987695;28;19921;-66
2023/09/21 07:12:25;;;;;;;;;;;;;;;;;;5001330;28;19971;-66
2023/09/21 07:14:55;;;;;;;;;;;;;;;;;;4990840;28;19921;-65
2023/09/21 07:17:23;;;;;;;;;;;;;;;;;;5003337;28;19928;-66
2023/09/21 07:19:48;;;;;;;;;;;;;;;;;;4990618;28;19920;-65
2023/09/21 07:22:13;;;;;;;;;;;;;;;;;;5004129;28;19921;-66
2023/09/21 07:24:40;;;;;;;;;;;;;;;;;;4989444;28;19999;-65
2023/09/21 07:27:07;;;;;;;;;;;;;;;;;;5008188;28;19927;-65
2023/09/21 07:29:33;;;;;;;;;;;;;;;;;;5004367;28;19917;-65
2023/09/21 07:31:59;;;;;;;;;;;;;;;;;;4990352;28;19995;-65
2023/09/21 07:34:29;;;;;;;;;;;;;;;;;;5002293;28;19929;-66
2023/09/21 07:36:56;;;;;;;;;;;;;;;;;;4986214;28;19944;-67
2023/09/21 07:39:24;;;;;;;;;;;;;;;;;;4992158;28;19921;-66
2023/09/21 07:41:53;;;;;;;;;;;;;;;;;;5002884;28;19932;-67
2023/09/21 07:44:18;;;;;;;;;;;;;;;;;;5003037;28;19917;-66
2023/09/21 07:46:49;;;;;;;;;;;;;;;;;;5002741;28;19970;-66
2023/09/21 07:49:17;;;;;;;;;;;;;;;;;;4990616;28;19928;-67
2023/09/21 07:51:43;;;;;;;;;;;;;;;;;;4991191;28;19925;-66
2023/09/21 07:54:08;;;;;;;;;;;;;;;;;;4976321;28;20384;-66
2023/09/21 07:56:41;;;;;;;;;;;;;;;;;;4992960;28;19956;-65
2023/09/21 07:59:10;;;;;;;;;;;;;;;;;;5000943;28;19921;-68
2023/09/21 08:01:35;;;;;;;;;;;;;;;;;;5002442;28;21809;-67
2023/09/21 08:04:01;;;;;;;;;;;;;;;;;;5003246;28;19917;-67
2023/09/21 08:06:28;;;;;;;;;;;;;;;;;;5016472;28;19921;-67
2023/09/21 08:08:57;;;;;;;;;;;;;;;;;;4975308;28;19966;-67
2023/09/21 08:11:25;;;;;;;;;;;;;;;;;;4991784;28;19917;-68
2023/09/21 08:13:51;;;;;;;;;;;;;;;;;;4987871;28;19917;-66
2023/09/21 08:16:16;;;;;;;;;;;;;;;;;;5000850;28;19917;-68
2023/09/21 08:18:42;;;;;;;;;;;;;;;;;;4987595;28;19917;-65
2023/09/21 08:21:14;;;;;;;;;;;;;;;;;;4991758;28;19970;-65
2023/09/21 08:23:42;;;;;;;;;;;;;;;;;;5001769;28;19955;-67
2023/09/21 08:26:07;;;;;;;;;;;;;;;;;;5002480;28;19921;-66
2023/09/21 08:28:33;;;;;;;;;;;;;;;;;;4989955;28;19968;-66
2023/09/21 08:30:59;;;;;;;;;;;;;;;;;;4998929;28;19921;-66
2023/09/21 08:33:25;;;;;;;;;;;;;;;;;;4985343;28;19964;-67
2023/09/21 08:35:50;;;;;;;;;;;;;;;;;;4972997;28;19991;-67
2023/09/21 08:38:17;;;;;;;;;;;;;;;;;;4989359;28;20060;-68
2023/09/21 08:40:47;;;;;;;;;;;;;;;;;;4986301;28;19990;-68
2023/09/21 08:43:12;;;;;;;;;;;;;;;;;;4992178;28;19924;-68
2023/09/21 08:45:38;;;;;;;;;;;;;;;;;;4972408;28;19921;-68
2023/09/21 08:48:07;;;;;;;;;;;;;;;;;;5002371;28;19925;-69
2023/09/21 08:50:32;;;;;;;;;;;;;;;;;;5006877;28;19948;-69
2023/09/21 08:52:58;;;;;;;;;;;;;;;;;;5002824;28;19921;-69
2023/09/21 08:55:23;;;;;;;;;;;;;;;;;;5007345;28;19949;-69
2023/09/21 08:57:52;;;;;;;;;;;;;;;;;;4998816;28;19921;-66
2023/09/21 09:00:21;;;;;;;;;;;;;;;;;;5001509;28;19953;-65
2023/09/21 09:02:46;;;;;;;;;;;;;;;;;;5001565;28;19929;-67
2023/09/21 09:05:13;;;;;;;;;;;;;;;;;;4975276;28;19918;-66
2023/09/21 09:07:41;;;;;;;;;;;;;;;;;;5002917;28;20536;-67
2023/09/21 09:10:09;;;;;;;;;;;;;;;;;;4991391;28;19928;-67
2023/09/21 09:12:35;;;;;;;;;;;;;;;;;;4989720;28;19925;-67
2023/09/21 09:15:02;;;;;;;;;;;;;;;;;;4970282;28;20008;-67
2023/09/21 09:17:28;;;;;;;;;;;;;;;;;;4988181;28;19921;-68
2023/09/21 09:19:54;;;;;;;;;;;;;;;;;;5001889;28;19931;-70
2023/09/21 09:22:22;;;;;;;;;;;;;;;;;;4984596;28;19921;-69
2023/09/21 09:24:51;;;;;;;;;;;;;;;;;;5013824;28;19917;-67
2023/09/21 09:27:20;;;;;;;;;;;;;;;;;;4991239;28;19927;-67
2023/09/21 09:29:48;;;;;;;;;;;;;;;;;;4984338;28;19921;-67
2023/09/21 09:32:15;;;;;;;;;;;;;;;;;;4999510;28;21921;-67
2023/09/21 09:34:46;;;;;;;;;;;;;;;;;;5001605;28;19918;-67
2023/09/21 09:37:15;;;;;;;;;;;;;;;;;;5006150;28;19971;-68
2023/09/21 09:39:43;;;;;;;;;;;;;;;;;;4975406;28;21871;-69
2023/09/21 09:42:08;;;;;;;;;;;;;;;;;;4983340;28;19918;-69
2023/09/21 09:44:34;;;;;;;;;;;;;;;;;;5000307;28;20753;-69
2023/09/21 09:47:03;;;;;;;;;;;;;;;;;;4985144;28;20407;-68
2023/09/21 09:49:29;;;;;;;;;;;;;;;;;;4987581;28;19921;-68
2023/09/21 09:51:55;;;;;;;;;;;;;;;;;;5000352;28;19921;-68
2023/09/21 09:54:21;;;;;;;;;;;;;;;;;;4975100;28;19925;-68
2023/09/21 09:56:51;;;;;;;;;;;;;;;;;;4984169;28;19997;-74
2023/09/21 09:59:19;;;;;;;;;;;;;;;;;;4990953;28;19918;-68
2023/09/21 10:01:50;;;;;;;;;;;;;;;;;;4974063;28;19959;-68
2023/09/21 10:04:16;;;;;;;;;;;;;;;;;;4986666;28;19917;-67
2023/09/21 10:06:44;;;;;;;;;;;;;;;;;;5001880;28;19979;-68
2023/09/21 10:09:10;;;;;;;;;;;;;;;;;;5007176;28;19918;-68
2023/09/21 10:11:38;;;;;;;;;;;;;;;;;;4998655;28;20028;-68
2023/09/21 10:14:04;;;;;;;;;;;;;;;;;;4998372;28;19998;-68
2023/09/21 10:16:31;;;;;;;;;;;;;;;;;;4982308;28;20292;-68
2023/09/21 10:18:58;;;;;;;;;;;;;;;;;;4981370;28;20028;-68
2023/09/21 10:21:26;;;;;;;;;;;;;;;;;;4998851;28;20024;-68
2023/09/21 10:23:51;;;;;;;;;;;;;;;;;;4989111;28;21224;-68
2023/09/21 10:26:17;;;;;;;;;;;;;;;;;;5001864;28;19921;-68
2023/09/21 10:28:45;;;;;;;;;;;;;;;;;;5001846;28;20036;-69
2023/09/21 10:31:10;;;;;;;;;;;;;;;;;;4987214;28;19924;-68
2023/09/21 10:33:36;;;;;;;;;;;;;;;;;;5001174;28;19921;-69
2023/09/21 10:36:05;;;;;;;;;;;;;;;;;;4989003;28;19918;-70
2023/09/21 10:38:31;;;;;;;;;;;;;;;;;;5003721;28;19921;-68
2023/09/21 10:40:57;;;;;;;;;;;;;;;;;;5002185;28;19925;-68
2023/09/21 10:43:22;;;;;;;;;;;;;;;;;;4985404;28;19917;-68
2023/09/21 10:45:52;;;;;;;;;;;;;;;;;;4990860;28;19939;-68
2023/09/21 10:48:18;;;;;;;;;;;;;;;;;;4989754;28;20020;-67
2023/09/21 10:50:46;;;;;;;;;;;;;;;;;;4976548;28;19925;-68
2023/09/21 10:53:11;;;;;;;;;;;;;;;;;;5004250;28;19925;-67
2023/09/21 10:55:39;;;;;;;;;;;;;;;;;;5005270;28;19921;-67
2023/09/21 10:58:05;;;;;;;;;;;;;;;;;;4990588;28;19985;-65
2023/09/21 11:00:33;;;;;;;;;;;;;;;;;;5003509;28;19976;-66
2023/09/21 11:03:02;;;;;;;;;;;;;;;;;;5003403;28;20926;-65
2023/09/21 11:05:30;;;;;;;;;;;;;;;;;;5008302;28;19953;-67
2023/09/21 11:07:55;;;;;;;;;;;;;;;;;;4976914;28;20036;-65
2023/09/21 11:10:24;;;;;;;;;;;;;;;;;;4984988;28;19928;-65
2023/09/21 11:12:52;;;;;;;;;;;;;;;;;;4993236;28;19923;-66
2023/09/21 11:15:18;;;;;;;;;;;;;;;;;;5001051;28;19917;-67
2023/09/21 11:17:43;;;;;;;;;;;;;;;;;;4987170;28;19995;-66
2023/09/21 11:20:08;;;;;;;;;;;;;;;;;;4992432;28;20386;-67
2023/09/21 11:22:36;;;;;;;;;;;;;;;;;;5002855;28;19921;-68
2023/09/21 11:25:02;;;;;;;;;;;;;;;;;;4992355;28;21160;-67
2023/09/21 11:27:29;;;;;;;;;;;;;;;;;;4993391;28;20024;-67
2023/09/21 11:29:58;;;;;;;;;;;;;;;;;;4989137;28;19921;-66
2023/09/21 11:32:23;;;;;;;;;;;;;;;;;;5008020;28;19996;-65
2023/09/21 11:34:49;;;;;;;;;;;;;;;;;;4991779;28;20564;-67
2023/09/21 11:37:19;;;;;;;;;;;;;;;;;;5003049;28;19921;-66
2023/09/21 11:39:51;;;;;;;;;;;;;;;;;;5004451;28;19932;-66
2023/09/21 11:42:17;;;;;;;;;;;;;;;;;;5003591;28;20033;-67
2023/09/21 11:44:42;;;;;;;;;;;;;;;;;;4967019;28;20337;-66
2023/09/21 11:47:11;;;;;;;;;;;;;;;;;;5006192;28;19928;-66
2023/09/21 11:49:39;;;;;;;;;;;;;;;;;;4984521;28;20219;-66
2023/09/21 11:52:04;;;;;;;;;;;;;;;;;;5002341;28;19917;-67
2023/09/21 11:54:34;;;;;;;;;;;;;;;;;;5017872;28;20241;-67
2023/09/21 11:57:00;;;;;;;;;;;;;;;;;;4989905;28;19921;-67
2023/09/21 11:59:31;;;;;;;;;;;;;;;;;;5008923;28;19917;-67
2023/09/21 12:01:59;;;;;;;;;;;;;;;;;;5001158;28;19917;-67
2023/09/21 12:04:29;;;;;;;;;;;;;;;;;;5003063;28;19921;-67
2023/09/21 12:06:54;;;;;;;;;;;;;;;;;;4988004;28;21992;-70
2023/09/21 12:09:22;;;;;;;;;;;;;;;;;;5006250;28;19943;-69
2023/09/21 12:11:54;;;;;;;;;;;;;;;;;;5003115;28;19917;-67
2023/09/21 12:14:24;;;;;;;;;;;;;;;;;;4992940;28;19921;-69
2023/09/21 12:16:50;;;;;;;;;;;;;;;;;;4986076;28;19921;-67
2023/09/21 12:19:16;;;;;;;;;;;;;;;;;;5003638;28;19967;-67
2023/09/21 12:21:41;;;;;;;;;;;;;;;;;;4990844;28;20331;-68
2023/09/21 12:24:07;;;;;;;;;;;;;;;;;;4990944;28;21519;-67
2023/09/21 12:26:35;;;;;;;;;;;;;;;;;;5016692;28;19917;-67
2023/09/21 12:29:03;;;;;;;;;;;;;;;;;;4991400;28;19917;-67
2023/09/21 12:31:29;;;;;;;;;;;;;;;;;;5004042;28;19995;-68
2023/09/21 12:33:55;;;;;;;;;;;;;;;;;;4990160;28;19917;-70
2023/09/21 12:36:23;;;;;;;;;;;;;;;;;;4988371;28;20024;-69
2023/09/21 12:38:50;;;;;;;;;;;;;;;;;;5006557;28;19917;-70
2023/09/21 12:41:18;;;;;;;;;;;;;;;;;;4991454;28;20384;-73
2023/09/21 12:43:43;;;;;;;;;;;;;;;;;;5004445;28;20000;-71
2023/09/21 12:46:11;;;;;;;;;;;;;;;;;;5000448;28;19924;-73
2023/09/21 12:48:36;;;;;;;;;;;;;;;;;;5004114;28;19936;-71
2023/09/21 12:51:07;;;;;;;;;;;;;;;;;;4992123;28;19917;-72
2023/09/21 12:53:32;;;;;;;;;;;;;;;;;;5008141;28;19921;-70
2023/09/21 12:55:58;;;;;;;;;;;;;;;;;;4985881;28;19918;-70
2023/09/21 12:58:26;;;;;;;;;;;;;;;;;;5002536;28;20317;-71
2023/09/21 13:00:52;;;;;;;;;;;;;;;;;;4988408;28;19937;-72
2023/09/21 13:03:17;;;;;;;;;;;;;;;;;;4984887;28;19921;-70
2023/09/21 13:05:45;;;;;;;;;;;;;;;;;;4988175;28;19965;-70
2023/09/21 13:08:13;;;;;;;;;;;;;;;;;;4987764;28;19967;-73
2023/09/21 13:10:41;;;;;;;;;;;;;;;;;;4985537;28;19929;-71
2023/09/21 13:13:06;;;;;;;;;;;;;;;;;;5002743;28;19921;-72
2023/09/21 13:15:32;;;;;;;;;;;;;;;;;;4993214;28;19917;-74
2023/09/21 13:17:57;;;;;;;;;;;;;;;;;;4992572;28;20413;-72
2023/09/21 13:20:23;;;;;;;;;;;;;;;;;;4977649;28;20011;-72
2023/09/21 13:22:48;;;;;;;;;;;;;;;;;;5003691;28;19921;-71
2023/09/21 13:25:13;;;;;;;;;;;;;;;;;;4990487;28;19917;-72
2023/09/21 13:27:41;;;;;;;;;;;;;;;;;;5001695;28;19921;-71
2023/09/21 13:30:10;;;;;;;;;;;;;;;;;;4988337;28;19918;-73
2023/09/21 13:32:38;;;;;;;;;;;;;;;;;;4988715;28;19923;-71
2023/09/21 13:35:04;;;;;;;;;;;;;;;;;;4987197;28;19924;-71
2023/09/21 13:37:35;;;;;;;;;;;;;;;;;;4974981;28;19921;-70
2023/09/21 13:40:00;;;;;;;;;;;;;;;;;;5000555;28;19921;-70
2023/09/21 13:42:28;;;;;;;;;;;;;;;;;;4987013;28;19921;-69
2023/09/21 13:44:54;;;;;;;;;;;;;;;;;;4988888;28;19931;-68
2023/09/21 13:47:25;;;;;;;;;;;;;;;;;;4995773;28;20015;-67
2023/09/21 13:49:51;;;;;;;;;;;;;;;;;;4989365;28;20374;-68
2023/09/21 13:52:17;;;;;;;;;;;;;;;;;;4988249;28;19928;-68
2023/09/21 13:54:46;;;;;;;;;;;;;;;;;;4998923;28;19921;-66
2023/09/21 13:57:11;;;;;;;;;;;;;;;;;;4982904;28;19921;-68
2023/09/21 13:59:39;;;;;;;;;;;;;;;;;;5005546;28;20510;-67
2023/09/21 14:02:05;;;;;;;;;;;;;;;;;;4999669;28;19928;-67
2023/09/21 14:04:30;;;;;;;;;;;;;;;;;;4968035;28;20376;-66
2023/09/21 14:06:58;;;;;;;;;;;;;;;;;;5000381;28;19928;-67
2023/09/21 14:09:29;;;;;;;;;;;;;;;;;;4971721;28;20016;-68
2023/09/21 14:11:57;;;;;;;;;;;;;;;;;;4990367;28;20044;-68
2023/09/21 14:14:23;;;;;;;;;;;;;;;;;;4989637;28;19922;-68
2023/09/21 14:16:48;;;;;;;;;;;;;;;;;;4984536;28;19952;-66
2023/09/21 14:19:18;;;;;;;;;;;;;;;;;;4986668;28;19929;-67
2023/09/21 14:21:46;;;;;;;;;;;;;;;;;;5002239;28;19925;-66
2023/09/21 14:24:15;;;;;;;;;;;;;;;;;;4992511;28;19917;-68
2023/09/21 14:26:43;;;;;;;;;;;;;;;;;;4990063;28;19967;-67
2023/09/21 14:29:18;;;;;;;;;;;;;;;;;;4986636;28;19917;-67
2023/09/21 14:31:48;;;;;;;;;;;;;;;;;;5002140;28;19929;-67
2023/09/21 14:34:13;;;;;;;;;;;;;;;;;;4986579;28;19927;-68
2023/09/21 14:36:41;;;;;;;;;;;;;;;;;;4992861;28;19921;-68
2023/09/21 14:39:06;;;;;;;;;;;;;;;;;;4992048;28;20545;-67
2023/09/21 14:41:32;;;;;;;;;;;;;;;;;;4977216;28;19925;-67
2023/09/21 14:43:57;;;;;;;;;;;;;;;;;;4991655;28;20059;-67
2023/09/21 14:46:23;;;;;;;;;;;;;;;;;;4991428;28;20392;-68
2023/09/21 14:48:48;;;;;;;;;;;;;;;;;;4990232;28;20295;-68
2023/09/21 14:51:16;;;;;;;;;;;;;;;;;;4969310;28;19944;-68
2023/09/21 14:53:41;;;;;;;;;;;;;;;;;;5009726;28;19921;-68
2023/09/21 14:56:09;;;;;;;;;;;;;;;;;;5001438;28;19917;-68
2023/09/21 14:58:34;;;;;;;;;;;;;;;;;;4990081;28;20676;-69
2023/09/21 15:01:03;;;;;;;;;;;;;;;;;;4967528;28;19921;-70
2023/09/21 15:03:29;;;;;;;;;;;;;;;;;;5018426;28;19961;-71
2023/09/21 15:05:55;;;;;;;;;;;;;;;;;;4986989;28;19921;-68
2023/09/21 15:08:20;;;;;;;;;;;;;;;;;;5003706;28;19932;-70
2023/09/21 15:10:53;;;;;;;;;;;;;;;;;;4986867;28;20709;-69
2023/09/21 15:13:21;;;;;;;;;;;;;;;;;;4987933;28;19928;-69
2023/09/21 15:15:47;;;;;;;;;;;;;;;;;;5002473;28;19974;-69
2023/09/21 15:18:15;;;;;;;;;;;;;;;;;;4988493;28;20241;-69
2023/09/21 15:20:43;;;;;;;;;;;;;;;;;;5004516;28;20431;-70
2023/09/21 15:23:08;;;;;;;;;;;;;;;;;;5008833;28;19921;-69
2023/09/21 15:25:36;;;;;;;;;;;;;;;;;;4990992;28;20532;-68
2023/09/21 15:28:05;;;;;;;;;;;;;;;;;;4990870;28;19977;-68
2023/09/21 15:30:30;;;;;;;;;;;;;;;;;;5002905;28;19956;-68
2023/09/21 15:32:56;;;;;;;;;;;;;;;;;;4992562;28;20345;-68
2023/09/21 15:35:23;;;;;;;;;;;;;;;;;;4991164;28;19917;-69
2023/09/21 15:37:49;;;;;;;;;;;;;;;;;;4977230;28;19931;-68
2023/09/21 15:40:18;;;;;;;;;;;;;;;;;;4975052;28;19937;-68
2023/09/21 15:42:43;;;;;;;;;;;;;;;;;;4989604;28;19922;-67
2023/09/21 15:45:10;;;;;;;;;;;;;;;;;;4989720;28;21250;-66
2023/09/21 15:47:37;;;;;;;;;;;;;;;;;;4999276;28;20384;-66
2023/09/21 15:50:08;;;;;;;;;;;;;;;;;;5004042;28;19929;-65
2023/09/21 15:52:33;;;;;;;;;;;;;;;;;;4992615;28;19994;-67
2023/09/21 15:55:01;;;;;;;;;;;;;;;;;;5004782;28;19944;-68
2023/09/21 15:57:30;;;;;;;;;;;;;;;;;;5003302;28;19929;-67
2023/09/21 15:59:56;;;;;;;;;;;;;;;;;;4992389;28;19924;-68
2023/09/21 16:02:27;;;;;;;;;;;;;;;;;;4997541;28;19961;-66
2023/09/21 16:05:04;;;;;;;;;;;;;;;;;;4999809;28;19944;-68
2023/09/21 16:07:32;;;;;;;;;;;;;;;;;;5000083;28;19921;-68
2023/09/21 16:10:00;;;;;;;;;;;;;;;;;;4986198;28;19921;-66
2023/09/21 16:12:25;;;;;;;;;;;;;;;;;;4987554;28;19921;-68
2023/09/21 16:14:51;;;;;;;;;;;;;;;;;;4983914;28;19952;-70
2023/09/21 16:17:16;;;;;;;;;;;;;;;;;;5003176;28;19917;-69
2023/09/21 16:19:47;;;;;;;;;;;;;;;;;;4982458;28;20011;-70
2023/09/21 16:22:15;;;;;;;;;;;;;;;;;;4986526;28;19966;-68
2023/09/21 16:27:57;;;;;;;;;;;;;;;;;;5000277;28;20000;-66
2023/09/21 16:30:30;;;;;;;;;;;;;;;;;;5000473;28;19940;-69
2023/09/21 16:33:00;;;;;;;;;;;;;;;;;;4998739;28;19921;-69
2023/09/21 16:35:28;;;;;;;;;;;;;;;;;;4985317;28;19975;-70
2023/09/21 16:37:56;;;;;;;;;;;;;;;;;;4989085;28;19921;-67
2023/09/21 16:40:22;;;;;;;;;;;;;;;;;;5000497;28;19936;-68
2023/09/21 16:42:48;;;;;;;;;;;;;;;;;;4982731;28;19928;-67
2023/09/21 16:45:14;;;;;;;;;;;;;;;;;;5014420;28;19921;-68
2023/09/21 16:47:40;;;;;;;;;;;;;;;;;;4988068;28;20313;-67
2023/09/21 16:50:05;;;;;;;;;;;;;;;;;;5001931;28;19921;-68